Time;durP1;ratioP1;P1;durP2;ratioP2;P2;SDS_P1;SDS_P2;PMS_P1;PMS_P2;Temp;Humidity;BMP_temperature;BMP_pressure;BME280_temperature;BME280_humidity;BME280_pressure;Samples;Min_cycle;Max_cycle;Signal;HPM_P1;HPM_P2
2022/06/12 00:01:41;;;;;;;13.82;2.88;;;17.40;68.30;;;;;;4958285;28;19913;-79
2022/06/12 00:04:07;;;;;;;12.57;2.53;;;17.40;68.60;;;;;;4958406;28;20069;-79
2022/06/12 00:06:33;;;;;;;7.75;3.08;;;17.40;68.40;;;;;;4951651;28;20047;-79
2022/06/12 00:08:58;;;;;;;10.20;2.92;;;17.40;68.20;;;;;;4937875;29;20024;-79
2022/06/12 00:11:27;;;;;;;10.60;2.80;;;17.30;68.70;;;;;;4954350;28;20030;-79
2022/06/12 00:13:58;;;;;;;13.27;3.10;;;17.30;69.20;;;;;;4939071;29;20035;-79
2022/06/12 00:16:31;;;;;;;12.02;2.85;;;17.30;69.00;;;;;;4938570;29;20035;-79
2022/06/12 00:18:57;;;;;;;8.70;3.00;;;17.20;69.40;;;;;;4939544;28;20031;-79
2022/06/12 00:21:24;;;;;;;13.18;3.45;;;17.20;69.20;;;;;;4965972;28;20039;-79
2022/06/12 00:23:57;;;;;;;15.80;3.17;;;17.30;69.80;;;;;;4957640;29;20062;-79
2022/06/12 00:26:38;;;;;;;12.82;2.75;;;17.20;70.20;;;;;;4958039;28;20034;-79
2022/06/12 00:29:11;;;;;;;13.95;3.08;;;17.20;70.50;;;;;;4955652;28;20034;-79
2022/06/12 00:31:39;;;;;;;13.88;3.42;;;17.10;70.70;;;;;;4937727;29;20031;-79
2022/06/12 00:34:05;;;;;;;12.55;3.40;;;17.00;71.20;;;;;;4955992;29;20034;-79
2022/06/12 00:36:31;;;;;;;9.80;3.17;;;17.00;71.10;;;;;;4949253;28;20032;-79
2022/06/12 00:39:05;;;;;;;13.50;3.50;;;17.00;70.90;;;;;;4953509;29;20529;-79
2022/06/12 00:41:31;;;;;;;8.45;3.17;;;17.00;71.40;;;;;;4953382;29;20164;-79
2022/06/12 00:43:57;;;;;;;10.93;3.33;;;17.00;71.00;;;;;;4953240;28;20027;-79
2022/06/12 00:46:57;;;;;;;11.15;3.40;;;16.90;71.60;;;;;;4938347;29;20144;-79
2022/06/12 00:49:31;;;;;;;10.50;3.07;;;17.00;71.20;;;;;;4938646;29;20083;-79
2022/06/12 00:52:22;;;;;;;17.83;4.07;;;17.00;71.10;;;;;;4953498;29;20031;-79
2022/06/12 00:54:51;;;;;;;13.75;3.55;;;17.00;70.80;;;;;;4936589;29;20044;-79
2022/06/12 00:57:18;;;;;;;15.95;3.22;;;17.10;70.60;;;;;;4945096;29;20528;-79
2022/06/12 00:59:51;;;;;;;8.63;3.35;;;17.00;70.90;;;;;;4957546;28;20040;-79
2022/06/12 01:02:22;;;;;;;14.65;3.60;;;16.90;71.50;;;;;;4940958;28;20035;-79
2022/06/12 01:07:36;;;;;;;9.07;3.10;;;16.90;71.10;;;;;;4938409;29;20062;-79
2022/06/12 01:10:05;;;;;;;16.92;3.03;;;16.90;71.30;;;;;;4952876;28;20474;-79
2022/06/12 01:12:37;;;;;;;11.52;3.33;;;16.80;72.00;;;;;;4938195;29;20028;-79
2022/06/12 01:15:12;;;;;;;11.57;2.67;;;16.80;71.60;;;;;;4938237;29;20135;-79
2022/06/12 01:17:39;;;;;;;9.98;3.10;;;16.80;71.90;;;;;;4938176;29;20027;-79
2022/06/12 01:20:10;;;;;;;12.88;2.40;;;16.80;71.60;;;;;;4954957;28;20050;-79
2022/06/12 01:22:51;;;;;;;9.77;2.95;;;16.80;72.00;;;;;;4957363;28;20045;-79
2022/06/12 01:25:25;;;;;;;9.02;3.03;;;16.80;71.30;;;;;;4957233;28;20035;-79
2022/06/12 01:27:57;;;;;;;6.13;2.85;;;16.70;71.50;;;;;;4954055;28;20032;-79
2022/06/12 01:30:33;;;;;;;14.95;3.42;;;16.70;71.70;;;;;;4936978;29;20114;-79
2022/06/12 01:33:17;;;;;;;12.75;3.33;;;16.70;71.70;;;;;;4946355;29;20245;-79
2022/06/12 01:36:12;;;;;;;17.40;3.40;;;16.70;71.90;;;;;;4957136;28;20474;-79
2022/06/12 01:38:46;;;;;;;14.23;3.17;;;16.70;71.40;;;;;;4952541;29;20039;-79
2022/06/12 01:41:50;;;;;;;15.18;3.53;;;16.70;71.60;;;;;;4937762;29;20134;-79
2022/06/12 01:44:26;;;;;;;11.35;3.28;;;16.70;71.60;;;;;;4937805;29;20059;-79
2022/06/12 01:47:00;;;;;;;8.80;2.53;;;16.70;71.60;;;;;;4937862;29;20024;-79
2022/06/12 01:49:39;;;;;;;10.18;3.08;;;16.60;71.30;;;;;;4937913;29;20023;-79
2022/06/12 01:52:35;;;;;;;10.45;3.10;;;16.60;70.80;;;;;;4936539;29;20059;-78
2022/06/12 01:55:12;;;;;;;10.05;2.90;;;16.60;71.20;;;;;;4937766;29;20028;-79
2022/06/12 01:57:58;;;;;;;8.65;2.83;;;16.60;71.30;;;;;;4937488;29;20036;-79
2022/06/12 02:00:26;;;;;;;8.60;3.22;;;16.60;71.10;;;;;;4937648;29;20020;-79
2022/06/12 02:02:59;;;;;;;14.10;3.88;;;16.50;71.20;;;;;;4937660;29;20035;-79
2022/06/12 02:05:33;;;;;;;14.38;2.97;;;16.50;71.40;;;;;;4952433;29;20028;-79
2022/06/12 02:08:28;;;;;;;17.48;3.45;;;16.50;71.60;;;;;;4937875;29;20102;-79
2022/06/12 02:13:55;;;;;;;11.88;2.72;;;16.40;71.50;;;;;;4937789;29;20038;-79
2022/06/12 02:16:30;;;;;;;13.90;4.07;;;16.30;72.00;;;;;;4937965;29;20088;-79
2022/06/12 02:18:59;;;;;;;13.52;3.53;;;16.30;72.00;;;;;;4952076;28;20522;-79
2022/06/12 02:21:37;;;;;;;5.60;3.08;;;16.20;72.00;;;;;;4950439;29;20027;-79
2022/06/12 02:24:13;;;;;;;13.60;4.20;;;16.30;72.10;;;;;;4947984;28;20043;-79
2022/06/12 02:26:42;;;;;;;7.43;3.28;;;16.30;71.50;;;;;;4937416;29;20053;-79
2022/06/12 02:29:20;;;;;;;6.85;2.95;;;16.30;71.40;;;;;;4937430;29;20383;-79
2022/06/12 02:31:51;;;;;;;12.65;2.78;;;16.20;72.00;;;;;;4952006;29;20028;-79
2022/06/12 02:34:24;;;;;;;6.88;3.28;;;16.20;72.40;;;;;;4956148;29;20031;-79
2022/06/12 02:36:55;;;;;;;10.50;3.03;;;16.20;72.00;;;;;;4956404;28;20082;-79
2022/06/12 02:39:30;;;;;;;8.65;3.13;;;16.20;72.00;;;;;;4947316;28;20032;-79
2022/06/12 02:42:07;;;;;;;10.48;3.40;;;16.20;72.50;;;;;;4955453;28;20054;-79
2022/06/12 02:44:48;;;;;;;15.75;3.47;;;16.20;72.30;;;;;;4940666;29;20050;-79
2022/06/12 02:47:22;;;;;;;11.55;3.60;;;16.20;72.10;;;;;;4940991;29;20432;-79
2022/06/12 02:50:09;;;;;;;9.95;3.00;;;16.20;72.10;;;;;;4940892;29;20024;-79
2022/06/12 02:53:05;;;;;;;7.88;2.63;;;16.10;72.20;;;;;;4940932;29;20458;-79
2022/06/12 02:56:17;;;;;;;6.70;2.20;;;16.10;72.60;;;;;;4957105;29;20110;-79
2022/06/12 02:59:13;;;;;;;12.77;2.63;;;16.10;72.70;;;;;;4957451;28;20035;-79
2022/06/12 03:01:48;;;;;;;15.23;3.75;;;16.10;72.70;;;;;;4959729;28;20024;-79
2022/06/12 03:04:27;;;;;;;10.65;3.00;;;16.10;72.80;;;;;;4945995;28;20031;-79
2022/06/12 03:07:04;;;;;;;11.88;3.05;;;16.10;72.90;;;;;;4940438;29;20032;-79
2022/06/12 03:09:29;;;;;;;9.98;3.03;;;16.00;72.70;;;;;;4956281;29;20522;-79
2022/06/12 03:11:55;;;;;;;11.15;3.33;;;16.10;72.80;;;;;;4959154;28;20474;-79
2022/06/12 03:14:22;;;;;;;6.50;2.92;;;16.00;72.80;;;;;;4953747;28;20043;-79
2022/06/12 03:16:49;;;;;;;12.90;3.05;;;16.00;72.90;;;;;;4940228;29;20019;-79
2022/06/12 03:19:26;;;;;;;12.00;3.00;;;16.00;72.50;;;;;;4940436;29;20055;-79
2022/06/12 03:22:07;;;;;;;10.02;2.65;;;16.00;72.80;;;;;;4956463;29;20371;-79
2022/06/12 03:24:55;;;;;;;11.63;3.15;;;15.90;72.70;;;;;;4957987;28;20071;-79
2022/06/12 03:27:40;;;;;;;10.40;2.83;;;16.00;72.70;;;;;;4959353;28;20498;-79
2022/06/12 03:30:17;;;;;;;11.02;3.20;;;15.90;71.90;;;;;;4951112;28;20043;-79
2022/06/12 03:33:12;;;;;;;10.15;3.42;;;15.90;72.30;;;;;;4946375;29;20026;-79
2022/06/12 03:35:59;;;;;;;7.32;2.50;;;15.80;72.00;;;;;;4962652;28;20039;-79
2022/06/12 03:38:39;;;;;;;14.98;3.60;;;15.80;72.50;;;;;;4957985;28;20506;-79
2022/06/12 03:41:30;;;;;;;7.97;2.97;;;15.80;72.80;;;;;;4959063;28;20051;-79
2022/06/12 03:44:06;;;;;;;18.00;3.90;;;15.70;73.00;;;;;;4957619;29;20102;-79
2022/06/12 03:46:57;;;;;;;;;;;;;;;;;;;;;
2022/06/12 03:49:28;;;;;;;7.97;3.33;;;15.50;73.10;;;;;;4952292;29;20032;-79
2022/06/12 03:52:15;;;;;;;20.98;3.97;;;15.50;72.80;;;;;;4944752;28;20031;-79
2022/06/12 03:54:55;;;;;;;8.43;2.80;;;15.30;72.90;;;;;;4939577;29;20035;-79
2022/06/12 04:00:19;;;;;;;10.80;3.17;;;15.30;73.00;;;;;;4939567;29;20131;-79
2022/06/12 04:02:50;;;;;;;11.48;3.25;;;15.30;73.10;;;;;;4958526;28;20027;-79
2022/06/12 04:05:32;;;;;;;8.13;3.25;;;15.40;73.10;;;;;;4958404;28;20031;-79
2022/06/12 04:08:00;;;;;;;11.70;3.67;;;15.40;72.50;;;;;;4958177;28;20038;-80
2022/06/12 04:10:30;;;;;;;9.27;2.90;;;15.40;72.80;;;;;;4957316;28;20031;-79
2022/06/12 04:12:58;;;;;;;8.80;2.55;;;15.50;72.70;;;;;;4957369;28;20032;-80
2022/06/12 04:15:35;;;;;;;7.63;2.97;;;15.30;72.60;;;;;;4952168;28;20039;-80
2022/06/12 04:18:01;;;;;;;13.32;3.17;;;15.30;72.90;;;;;;4938972;29;20070;-79
2022/06/12 04:20:47;;;;;;;9.32;3.03;;;15.30;72.90;;;;;;4944726;28;20020;-80
2022/06/12 04:23:19;;;;;;;9.10;3.25;;;15.30;72.80;;;;;;4950378;28;20034;-79
2022/06/12 04:26:01;;;;;;;8.73;3.08;;;15.30;72.90;;;;;;4937325;29;20031;-79
2022/06/12 04:28:35;;;;;;;8.95;3.30;;;15.30;73.20;;;;;;4938751;29;20024;-79
2022/06/12 04:31:08;;;;;;;10.50;3.30;;;15.30;73.10;;;;;;4953916;29;20096;-79
2022/06/12 04:34:04;;;;;;;7.72;3.03;;;15.30;73.10;;;;;;4951113;29;20023;-79
2022/06/12 04:36:29;;;;;;;12.88;2.92;;;15.30;72.90;;;;;;4938783;29;20019;-79
2022/06/12 04:38:55;;;;;;;11.30;2.95;;;15.30;72.70;;;;;;4938667;29;20118;-79
2022/06/12 04:41:29;;;;;;;8.75;3.40;;;15.30;73.30;;;;;;4938650;29;20040;-79
2022/06/12 04:43:55;;;;;;;9.32;2.92;;;15.30;73.10;;;;;;4938167;29;20479;-79
2022/06/12 04:46:22;;;;;;;10.77;2.78;;;15.30;73.10;;;;;;4937131;29;20051;-79
2022/06/12 04:48:51;;;;;;;11.95;2.90;;;15.30;72.80;;;;;;4963824;28;20032;-79
2022/06/12 04:51:17;;;;;;;7.13;2.85;;;15.30;73.20;;;;;;4938632;29;20028;-79
2022/06/12 04:53:46;;;;;;;7.35;3.25;;;15.30;72.90;;;;;;4937493;29;20052;-79
2022/06/12 04:56:14;;;;;;;11.38;3.42;;;15.30;73.00;;;;;;4943985;29;20095;-79
2022/06/12 04:58:40;;;;;;;8.00;2.97;;;15.30;72.60;;;;;;4957113;28;20074;-79
2022/06/12 05:01:07;;;;;;;10.98;3.00;;;15.30;73.40;;;;;;4957198;28;20024;-80
2022/06/12 05:03:33;;;;;;;5.22;2.47;;;15.20;73.60;;;;;;4952874;28;20034;-79
2022/06/12 05:05:59;;;;;;;10.23;2.95;;;15.20;73.70;;;;;;4957217;28;20027;-80
2022/06/12 05:08:26;;;;;;;9.25;3.53;;;15.20;73.60;;;;;;4951863;28;20063;-80
2022/06/12 05:10:52;;;;;;;7.50;2.30;;;15.20;73.50;;;;;;4938914;29;20028;-80
2022/06/12 05:13:17;;;;;;;10.68;3.08;;;15.20;73.60;;;;;;4956996;28;20033;-79
2022/06/12 05:15:45;;;;;;;8.95;2.75;;;15.30;73.50;;;;;;4948537;28;20034;-80
2022/06/12 05:18:14;;;;;;;10.32;2.85;;;15.30;73.10;;;;;;4948252;29;20035;-79
2022/06/12 05:20:40;;;;;;;11.75;3.45;;;15.30;72.80;;;;;;4949847;29;20034;-89
2022/06/12 05:23:07;;;;;;;15.98;3.97;;;15.30;73.20;;;;;;4949154;29;20067;-88
2022/06/12 05:25:33;;;;;;;10.32;4.03;;;15.40;73.40;;;;;;4963871;28;20474;-89
2022/06/12 05:28:00;;;;;;;9.68;3.47;;;15.40;73.80;;;;;;4964751;28;20482;-87
2022/06/12 05:30:29;;;;;;;7.05;3.40;;;15.50;73.30;;;;;;4958834;28;20083;-86
2022/06/12 05:32:57;;;;;;;12.23;4.07;;;15.50;73.20;;;;;;4960601;28;20035;-89
2022/06/12 05:35:23;;;;;;;12.27;3.45;;;15.60;73.10;;;;;;4966977;28;20051;-88
2022/06/12 05:37:50;;;;;;;10.10;4.15;;;15.60;72.90;;;;;;4951611;28;20035;-86
2022/06/12 05:40:24;;;;;;;20.23;3.97;;;15.60;72.50;;;;;;4961948;28;20066;-88
2022/06/12 05:42:50;;;;;;;9.55;3.25;;;15.60;73.00;;;;;;4946762;29;20148;-88
2022/06/12 05:45:20;;;;;;;7.80;3.03;;;15.60;73.10;;;;;;4961146;28;20055;-87
2022/06/12 05:47:54;;;;;;;9.23;3.08;;;15.60;73.10;;;;;;4946298;28;20028;-87
2022/06/12 05:50:23;;;;;;;10.82;3.83;;;15.60;73.20;;;;;;4948176;28;20086;-87
2022/06/12 05:52:49;;;;;;;7.82;3.40;;;15.70;73.40;;;;;;4963349;28;20034;-86
2022/06/12 05:55:15;;;;;;;16.63;3.80;;;15.70;73.70;;;;;;4947108;28;20023;-85
2022/06/12 05:57:41;;;;;;;13.07;3.38;;;15.70;73.40;;;;;;4947416;29;20513;-86
2022/06/12 06:00:21;;;;;;;8.07;3.30;;;15.70;73.50;;;;;;4962561;28;20462;-85
2022/06/12 06:02:46;;;;;;;10.43;3.75;;;15.70;73.70;;;;;;4963854;28;20035;-91
2022/06/12 06:05:12;;;;;;;8.95;4.07;;;15.80;73.70;;;;;;4966498;28;20509;-92
2022/06/12 06:07:39;;;;;;;10.25;3.50;;;15.80;73.70;;;;;;4950537;29;20031;-92
2022/06/12 06:10:08;;;;;;;5.78;2.72;;;15.80;73.30;;;;;;4969405;28;20031;-90
2022/06/12 06:12:34;;;;;;;9.00;3.28;;;15.80;73.90;;;;;;4941237;29;20028;-89
2022/06/12 06:14:59;;;;;;;8.55;3.58;;;15.80;74.00;;;;;;4956915;28;20032;-88
2022/06/12 06:17:25;;;;;;;10.20;3.72;;;15.80;74.20;;;;;;4966624;28;20130;-87
2022/06/12 06:19:54;;;;;;;12.63;3.35;;;15.80;74.10;;;;;;4974952;28;20027;-88
2022/06/12 06:22:20;;;;;;;8.25;3.13;;;15.80;74.30;;;;;;4959061;28;20031;-89
2022/06/12 06:24:46;;;;;;;10.85;3.53;;;15.90;74.00;;;;;;4960625;28;20027;-88
2022/06/12 06:27:14;;;;;;;8.95;3.60;;;16.00;73.80;;;;;;4960291;28;20549;-91
2022/06/12 06:29:41;;;;;;;8.20;2.67;;;16.00;74.20;;;;;;4973615;28;20091;-93
2022/06/12 06:32:08;;;;;;;10.60;3.10;;;16.00;73.90;;;;;;4936249;29;20027;-91
2022/06/12 06:34:37;;;;;;;7.47;2.85;;;16.10;74.60;;;;;;4953176;29;20038;-92
2022/06/12 06:37:05;;;;;;;10.80;3.05;;;16.10;74.50;;;;;;4957249;29;20395;-90
2022/06/12 06:39:30;;;;;;;11.13;2.80;;;16.20;74.50;;;;;;4957442;28;20058;-91
2022/06/12 06:41:56;;;;;;;10.20;3.03;;;16.10;75.40;;;;;;4967765;28;20052;-92
2022/06/12 06:47:06;;;;;;;10.20;3.08;;;16.20;74.80;;;;;;4953769;29;20127;-83
2022/06/12 06:49:32;;;;;;;10.57;2.83;;;16.30;75.60;;;;;;4973805;28;20031;-87
2022/06/12 06:51:58;;;;;;;7.13;2.92;;;16.30;75.10;;;;;;4970217;28;20470;-89
2022/06/12 06:54:24;;;;;;;6.43;2.55;;;16.30;76.10;;;;;;4954732;29;20033;-91
2022/06/12 06:56:50;;;;;;;10.48;3.03;;;16.40;75.60;;;;;;4977035;28;20041;-90
2022/06/12 06:59:16;;;;;;;10.90;3.20;;;16.40;75.10;;;;;;4963935;28;20034;-91
2022/06/12 07:01:42;;;;;;;7.35;2.83;;;16.60;74.30;;;;;;4941828;29;20067;-88
2022/06/12 07:04:08;;;;;;;8.07;3.30;;;16.70;74.40;;;;;;4942064;29;20059;-91
2022/06/12 07:06:34;;;;;;;7.82;2.58;;;16.80;74.30;;;;;;4948703;28;20031;-89
2022/06/12 07:09:00;;;;;;;5.43;2.42;;;16.80;74.70;;;;;;4959320;28;20031;-87
2022/06/12 07:11:26;;;;;;;8.93;2.78;;;17.00;73.80;;;;;;4959272;28;20039;-87
2022/06/12 07:13:53;;;;;;;12.32;3.22;;;17.10;73.70;;;;;;4953949;28;20015;-88
2022/06/12 07:16:20;;;;;;;9.57;2.35;;;17.20;73.20;;;;;;4957864;28;20035;-89
2022/06/12 07:18:46;;;;;;;6.65;2.45;;;17.20;72.80;;;;;;4940859;29;20110;-88
2022/06/12 07:21:12;;;;;;;5.72;2.53;;;17.30;72.70;;;;;;4969106;28;20042;-91
2022/06/12 07:23:40;;;;;;;8.57;2.67;;;17.30;72.80;;;;;;4952486;29;20026;-85
2022/06/12 07:26:14;;;;;;;7.57;2.17;;;17.60;72.40;;;;;;4950989;28;20031;-90
2022/06/12 07:28:40;;;;;;;5.90;1.98;;;17.90;71.60;;;;;;4947424;29;20026;-93
2022/06/12 07:31:07;;;;;;;5.72;2.17;;;18.40;69.80;;;;;;4966506;28;20486;-89
2022/06/12 07:33:34;;;;;;;4.80;1.95;;;19.20;67.60;;;;;;4964416;28;20023;-91
2022/06/12 07:36:00;;;;;;;7.57;2.42;;;20.20;64.00;;;;;;4960006;28;20039;-91
2022/06/12 07:38:27;;;;;;;8.00;1.52;;;22.10;58.40;;;;;;4946041;28;20046;-87
2022/06/12 07:41:01;;;;;;;7.82;2.05;;;22.80;55.70;;;;;;4954684;29;20057;-89
2022/06/12 07:43:28;;;;;;;7.03;2.10;;;23.80;52.50;;;;;;4966090;28;20031;-90
2022/06/12 07:45:55;;;;;;;8.23;2.30;;;24.20;51.90;;;;;;4950828;29;20490;-89
2022/06/12 07:48:22;;;;;;;6.30;1.65;;;25.40;48.70;;;;;;4957896;28;20082;-92
2022/06/12 07:50:49;;;;;;;11.38;2.53;;;27.00;45.40;;;;;;4950750;29;20099;-88
2022/06/12 07:53:16;;;;;;;8.25;1.83;;;27.40;44.30;;;;;;4953818;29;20023;-86
2022/06/12 07:55:43;;;;;;;11.30;2.22;;;28.70;41.20;;;;;;4953001;28;20139;-90
2022/06/12 07:58:09;;;;;;;6.00;1.83;;;30.80;36.70;;;;;;4952979;28;20375;-85
2022/06/12 08:00:37;;;;;;;6.95;1.67;;;32.90;33.90;;;;;;4955106;29;20102;-88
2022/06/12 08:03:05;;;;;;;7.37;2.10;;;34.00;31.40;;;;;;4957335;28;20094;-89
2022/06/12 08:05:32;;;;;;;7.47;1.47;;;32.90;32.30;;;;;;4952561;29;20301;-89
2022/06/12 08:07:58;;;;;;;8.35;1.90;;;29.90;35.40;;;;;;4954031;29;20038;-87
2022/06/12 08:10:24;;;;;;;7.15;1.90;;;27.80;39.00;;;;;;4958218;28;20398;-87
2022/06/12 08:12:50;;;;;;;11.18;2.17;;;28.30;39.40;;;;;;4946492;28;20039;-91
2022/06/12 08:15:25;;;;;;;10.82;1.80;;;29.30;37.70;;;;;;4947353;28;20177;-92
2022/06/12 08:17:51;;;;;;;7.72;1.88;;;28.80;37.90;;;;;;4936922;29;20044;-86
2022/06/12 08:20:24;;;;;;;7.47;1.70;;;28.00;39.20;;;;;;4938330;29;20451;-85
2022/06/12 08:22:52;;;;;;;7.95;1.80;;;29.70;37.00;;;;;;4948322;29;20509;-86
2022/06/12 08:25:18;;;;;;;6.53;1.83;;;30.10;36.70;;;;;;4946174;28;20434;-85
2022/06/12 08:27:44;;;;;;;5.50;1.58;;;28.50;38.10;;;;;;4938145;29;20115;-86
2022/06/12 08:30:10;;;;;;;7.15;1.65;;;30.70;35.80;;;;;;4948266;29;20055;-86
2022/06/12 08:32:37;;;;;;;6.22;1.67;;;31.70;33.60;;;;;;4951944;28;20653;-86
2022/06/12 08:35:10;;;;;;;7.43;1.55;;;30.40;34.50;;;;;;4962616;28;20461;-86
2022/06/12 08:37:38;;;;;;;8.93;1.83;;;31.60;33.60;;;;;;4948824;28;20034;-86
2022/06/12 08:40:29;;;;;;;6.50;1.90;;;29.90;35.10;;;;;;4948443;29;20082;-86
2022/06/12 08:43:15;;;;;;;8.07;1.95;;;28.30;37.10;;;;;;4949538;28;20051;-86
2022/06/12 08:45:48;;;;;;;5.45;1.75;;;27.30;39.50;;;;;;4950470;29;20560;-87
2022/06/12 08:48:30;;;;;;;6.55;1.80;;;27.70;39.30;;;;;;4947651;28;20032;-86
2022/06/12 08:51:28;;;;;;;5.25;1.70;;;30.30;36.10;;;;;;4945611;29;20039;-84
2022/06/12 08:54:18;;;;;;;6.13;2.03;;;32.30;32.60;;;;;;4955130;28;20039;-87
2022/06/12 08:56:52;;;;;;;5.38;1.45;;;34.20;30.80;;;;;;4952942;28;20113;-81
2022/06/12 08:59:26;;;;;;;6.80;1.90;;;35.70;28.00;;;;;;4951720;28;20036;-85
2022/06/12 09:01:52;;;;;;;6.90;1.70;;;36.40;27.30;;;;;;4951410;29;20062;-85
2022/06/12 09:04:23;;;;;;;9.73;2.00;;;34.80;29.00;;;;;;4949907;28;20070;-84
2022/06/12 09:07:03;;;;;;;10.23;2.10;;;33.60;30.80;;;;;;4960077;28;20055;-84
2022/06/12 09:09:38;;;;;;;7.25;1.70;;;31.70;31.80;;;;;;4966789;28;20482;-85
2022/06/12 09:12:14;;;;;;;5.57;1.98;;;30.30;33.70;;;;;;4966058;28;20059;-85
2022/06/12 09:15:01;;;;;;;6.82;1.73;;;30.00;33.20;;;;;;4952518;29;20023;-85
2022/06/12 09:17:38;;;;;;;5.32;1.48;;;31.30;32.80;;;;;;4955187;29;20015;-85
2022/06/12 09:21:01;;;;;;;6.43;1.58;;;32.80;30.70;;;;;;4949042;29;20027;-85
2022/06/12 09:23:57;;;;;;;5.53;1.40;;;34.30;28.90;;;;;;4944478;29;20027;-85
2022/06/12 09:26:47;;;;;;;5.72;1.20;;;35.20;27.40;;;;;;4945478;29;20434;-86
2022/06/12 09:29:45;;;;;;;8.38;1.95;;;35.80;26.60;;;;;;4954061;28;20489;-85
2022/06/12 09:32:33;;;;;;;5.75;1.52;;;36.40;26.60;;;;;;4947015;28;20043;-86
2022/06/12 09:34:58;;;;;;;;;;;36.90;24.20;;;;;;4943684;29;20039;-86
2022/06/12 09:38:21;;;;;;;5.47;1.70;;;36.90;23.50;;;;;;4943780;28;19938;-85
2022/06/12 09:41:08;;;;;;;6.03;1.65;;;37.00;24.70;;;;;;4954333;28;20520;-83
2022/06/12 09:43:43;;;;;;;7.05;1.60;;;37.60;23.80;;;;;;4952064;28;20027;-86
2022/06/12 09:46:21;;;;;;;8.25;1.70;;;37.70;24.30;;;;;;4954672;29;20031;-83
2022/06/12 09:49:20;;;;;;;5.30;1.70;;;38.10;23.90;;;;;;4956679;28;20059;-87
2022/06/12 09:52:11;;;;;;;4.40;1.58;;;38.20;22.90;;;;;;4957033;29;20035;-81
2022/06/12 09:54:57;;;;;;;7.45;1.67;;;38.40;22.80;;;;;;4941333;29;20036;-82
2022/06/12 09:57:29;;;;;;;5.90;1.40;;;38.60;23.30;;;;;;4941765;29;20034;-84
2022/06/12 10:00:01;;;;;;;5.85;1.75;;;38.50;22.50;;;;;;4957682;29;20027;-91
2022/06/12 10:02:48;;;;;;;6.25;1.52;;;38.40;22.10;;;;;;4959573;28;20039;-84
2022/06/12 10:05:17;;;;;;;6.07;1.77;;;38.40;22.50;;;;;;4953053;28;20035;-88
2022/06/12 10:08:18;;;;;;;5.15;1.63;;;38.30;22.70;;;;;;4955824;28;20106;-86
2022/06/12 10:10:57;;;;;;;5.38;1.40;;;38.40;22.20;;;;;;4957407;28;20043;-82
2022/06/12 10:13:37;;;;;;;6.57;1.92;;;38.30;22.90;;;;;;4958115;29;20027;-82
2022/06/12 10:16:10;;;;;;;4.68;1.40;;;38.40;21.90;;;;;;4957434;29;20036;-81
2022/06/12 10:18:41;;;;;;;6.78;1.58;;;37.70;22.50;;;;;;4960210;28;20102;-84
2022/06/12 10:21:15;;;;;;;7.55;1.95;;;37.70;23.60;;;;;;4941705;29;20095;-86
2022/06/12 10:23:40;;;;;;;6.07;1.38;;;37.60;23.60;;;;;;4941343;29;20066;-86
2022/06/12 10:26:27;;;;;;;5.63;1.38;;;37.40;22.80;;;;;;4957182;29;20063;-86
2022/06/12 10:29:06;;;;;;;4.93;1.67;;;37.20;22.30;;;;;;4958592;29;20027;-85
2022/06/12 10:31:34;;;;;;;4.38;1.23;;;36.80;23.50;;;;;;4954546;28;20473;-84
2022/06/12 10:34:22;;;;;;;7.35;1.75;;;36.70;24.00;;;;;;4949714;28;20028;-81
2022/06/12 10:36:48;;;;;;;4.50;1.30;;;36.30;24.50;;;;;;4958616;29;20035;-87
2022/06/12 10:39:20;;;;;;;7.05;2.03;;;35.90;24.90;;;;;;4958441;28;20031;-84
2022/06/12 10:41:54;;;;;;;5.60;1.60;;;35.00;26.80;;;;;;4940305;28;20043;-84
2022/06/12 10:44:29;;;;;;;4.65;1.10;;;34.00;26.50;;;;;;4954294;28;20034;-84
2022/06/12 10:46:55;;;;;;;3.75;1.30;;;33.30;27.50;;;;;;4939339;29;20036;-83
2022/06/12 10:49:23;;;;;;;4.75;1.20;;;32.40;28.40;;;;;;4940439;29;20016;-83
2022/06/12 10:51:50;;;;;;;5.20;1.38;;;31.90;29.60;;;;;;4954866;29;20027;-83
2022/06/12 10:54:22;;;;;;;5.20;1.30;;;31.20;30.50;;;;;;4939841;29;20027;-82
2022/06/12 10:56:51;;;;;;;6.40;1.23;;;30.90;30.70;;;;;;4952518;29;20029;-83
2022/06/12 10:59:32;;;;;;;2.95;1.05;;;30.50;31.00;;;;;;4959373;28;20094;-84
2022/06/12 11:02:15;;;;;;;5.10;1.33;;;30.20;31.70;;;;;;4958682;29;20027;-84
2022/06/12 11:05:22;;;;;;;6.18;1.52;;;30.00;32.60;;;;;;4957512;28;20042;-83
2022/06/12 11:08:19;;;;;;;5.07;1.45;;;29.60;32.70;;;;;;4959316;28;20027;-84
2022/06/12 11:10:56;;;;;;;6.85;1.77;;;29.00;32.70;;;;;;4946354;29;20047;-84
2022/06/12 11:13:46;;;;;;;5.70;1.65;;;29.00;34.10;;;;;;4959395;28;20033;-83
2022/06/12 11:16:25;;;;;;;4.45;1.38;;;29.00;34.60;;;;;;4952298;28;20028;-83
2022/06/12 11:19:30;;;;;;;5.30;1.38;;;29.00;34.10;;;;;;4940455;29;20463;-83
2022/06/12 11:21:55;;;;;;;5.50;1.30;;;28.60;33.70;;;;;;4956063;28;20043;-83
2022/06/12 11:24:48;;;;;;;6.63;1.40;;;28.60;34.50;;;;;;4959034;29;20038;-83
2022/06/12 11:27:52;;;;;;;6.18;1.70;;;28.50;34.60;;;;;;4939967;29;20027;-83
2022/06/12 11:30:39;;;;;;;6.35;1.55;;;28.50;33.60;;;;;;4983861;28;20502;-83
2022/06/12 11:33:27;;;;;;;6.30;1.50;;;28.50;34.90;;;;;;4950975;28;20644;-83
2022/06/12 11:36:01;;;;;;;4.95;1.25;;;28.40;34.60;;;;;;4957047;29;20040;-83
2022/06/12 11:38:54;;;;;;;4.55;1.08;;;28.20;35.30;;;;;;4959124;28;20026;-83
2022/06/12 11:41:48;;;;;;;4.72;2.72;;;28.00;34.60;;;;;;4958882;28;20075;-83
2022/06/12 11:44:19;;;;;;;5.00;1.67;;;27.90;35.80;;;;;;4940320;28;20115;-83
2022/06/12 11:46:49;;;;;;;6.15;1.17;;;27.80;35.60;;;;;;4939884;29;20090;-83
2022/06/12 11:49:40;;;;;;;8.48;1.50;;;27.80;35.50;;;;;;4939618;29;20087;-83
2022/06/12 11:52:27;;;;;;;3.28;1.13;;;27.90;34.70;;;;;;4939677;29;20038;-83
2022/06/12 11:55:23;;;;;;;5.93;1.30;;;27.60;34.50;;;;;;4938358;29;20529;-82
2022/06/12 11:58:13;;;;;;;5.45;1.38;;;27.60;35.80;;;;;;4939625;29;20039;-83
2022/06/12 12:00:47;;;;;;;;;;;27.40;36.60;;;;;;4939750;29;20027;-83
2022/06/12 12:03:34;;;;;;;6.80;1.27;;;27.50;36.00;;;;;;4939425;29;19998;-83
2022/06/12 12:06:24;;;;;;;10.60;2.20;;;27.30;36.00;;;;;;4939331;29;20075;-83
2022/06/12 12:09:48;;;;;;;7.05;1.85;;;27.40;36.90;;;;;;4939405;29;20031;-83
2022/06/12 12:12:19;;;;;;;4.45;1.27;;;27.50;36.20;;;;;;4953232;28;20042;-83
2022/06/12 12:14:47;;;;;;;6.78;1.65;;;27.50;36.00;;;;;;4955887;29;20414;-83
2022/06/12 12:17:15;;;;;;;6.85;1.70;;;27.50;36.20;;;;;;4944405;29;20494;-82
2022/06/12 12:19:44;;;;;;;7.15;1.40;;;27.30;36.40;;;;;;4939133;29;20032;-82
2022/06/12 12:22:17;;;;;;;9.47;2.50;;;27.20;36.70;;;;;;4957889;29;20035;-82
2022/06/12 12:24:56;;;;;;;8.82;1.75;;;27.20;36.50;;;;;;4958105;28;20031;-82
2022/06/12 12:27:42;;;;;;;4.57;1.23;;;27.20;36.50;;;;;;4957972;29;20035;-82
2022/06/12 12:30:29;;;;;;;7.72;1.55;;;27.20;36.00;;;;;;4973090;28;20043;-83
2022/06/12 12:32:57;;;;;;;6.75;1.52;;;27.10;36.50;;;;;;4971928;28;20079;-82
2022/06/12 12:41:12;;;;;;;4.95;1.20;;;26.90;37.10;;;;;;4938639;29;20095;-82
2022/06/12 12:43:54;;;;;;;8.25;1.30;;;26.70;36.30;;;;;;4938643;29;20095;-82
2022/06/12 12:46:23;;;;;;;9.48;1.33;;;26.80;37.30;;;;;;4953704;29;20463;-82
2022/06/12 12:48:53;;;;;;;8.07;1.48;;;26.80;37.30;;;;;;4955935;28;20031;-82
2022/06/12 12:51:26;;;;;;;4.05;1.20;;;26.60;36.20;;;;;;4954323;28;20035;-82
2022/06/12 12:53:52;;;;;;;3.20;1.05;;;26.60;36.80;;;;;;4938545;29;20027;-82
2022/06/12 12:56:32;;;;;;;7.22;1.48;;;26.80;36.80;;;;;;4938466;29;20107;-82
2022/06/12 12:59:10;;;;;;;2.42;1.10;;;26.80;36.00;;;;;;4949487;29;20035;-82
2022/06/12 13:01:43;;;;;;;4.23;1.10;;;26.80;36.20;;;;;;4957631;28;20402;-82
2022/06/12 13:04:22;;;;;;;7.80;1.70;;;26.80;35.70;;;;;;4956134;28;20038;-82
2022/06/12 13:07:13;;;;;;;3.90;1.33;;;26.70;35.90;;;;;;4957660;28;20019;-82
2022/06/12 13:09:40;;;;;;;3.10;1.00;;;26.70;36.60;;;;;;4956324;28;20031;-82
2022/06/12 13:12:44;;;;;;;3.05;1.15;;;26.80;36.90;;;;;;4955829;28;20083;-82
2022/06/12 13:16:06;;;;;;;2.25;0.93;;;26.80;36.30;;;;;;4956141;28;20035;-83
2022/06/12 13:18:59;;;;;;;4.35;1.23;;;26.80;36.20;;;;;;4956756;28;20043;-82
2022/06/12 13:21:36;;;;;;;5.35;0.90;;;26.80;36.70;;;;;;4956766;29;20402;-82
2022/06/12 13:24:21;;;;;;;3.00;0.80;;;26.70;35.20;;;;;;4957054;28;20059;-82
2022/06/12 13:26:47;;;;;;;5.45;0.98;;;26.70;34.80;;;;;;4956078;29;20122;-82
2022/06/12 13:29:16;;;;;;;5.93;1.33;;;26.70;35.80;;;;;;4943161;28;20066;-82
2022/06/12 13:32:01;;;;;;;4.57;0.87;;;26.60;35.60;;;;;;4937987;29;20030;-83
2022/06/12 13:34:29;;;;;;;2.70;0.88;;;26.70;34.80;;;;;;4937835;29;20038;-82
2022/06/12 13:36:56;;;;;;;2.03;0.57;;;26.70;35.70;;;;;;4938061;29;20028;-82
2022/06/12 13:39:31;;;;;;;4.60;1.10;;;26.70;35.30;;;;;;4944598;29;20486;-82
2022/06/12 13:42:03;;;;;;;6.07;1.45;;;26.70;34.70;;;;;;4957098;28;20043;-82
2022/06/12 13:44:34;;;;;;;6.47;0.80;;;26.50;34.20;;;;;;4955763;28;20066;-82